• Join FlightAware (Why Join?)
  • Login
  • US Flag 
10:20AM EST


 

Airport Tracker/Info


-or-


 

Live Flight TrackerFlight Track Log ✈ QTR722 ✈ 05-Nov-2013 ✈ KORD - OTBD

Flight Track Log - Related Links

Times and Time Zones

All times are in EST time to prevent confusion due to time zone crossing. See the QTR722 flight status page for this flight to view local times or setup timezone preferences in your user account.

Time Position Orientation Groundspeed Altitude Reporting Facility
EST Latitude Longitude Course Direction KTS MPH feet Rate Location/Type
09:42PM 41.9690 -87.9310 270° West 198 228 1,000  Level FlightAware
09:42PM 41.9700 -87.9640 272° West 199 229 2,200 2,700 Climbing FlightAware
09:43PM 41.9750 -88.0020 280° West 199 229 3,700 2,460 Climbing FlightAware
09:43PM 42.0000 -88.0240 327° Northwest 249 287 4,800 1,920 Climbing FlightAware
09:43PM 42.0050 -88.0240 360° North 253 291 4,800 1,380 Level FlightAware
09:44PM 42.0420 -87.9990 27° Northeast 290 334 5,700 1,620 Climbing FlightAware
09:44PM 42.0670 -87.9730 38° Northeast 304 350 6,400 1,860 Climbing FlightAware
09:44PM 42.0920 -87.9470 38° Northeast 316 364 7,100 1,980 Climbing FlightAware
09:45PM 42.1240 -87.9150 37° Northeast 333 383 8,000 2,160 Climbing FlightAware
09:45PM 42.1470 -87.8800 48° Northeast 341 392 8,900 2,460 Climbing FlightAware
09:46PM 42.1610 -87.8290 70° East 342 394 9,900 1,860 Climbing FlightAware
09:47PM 42.1790 -87.7190 78° East 387 445 11,200 1,440 Climbing FlightAware
09:47PM 42.1960 -87.6080 78° East 427 491 12,200 1,800 Climbing FlightAware
09:48PM 42.2060 -87.5430 78° East 433 498 13,300 2,520 Climbing FlightAware
09:48PM 42.2220 -87.4390 78° East 441 507 14,900 2,220 Climbing FlightAware
09:49PM 42.2480 -87.2730 78° East 460 529 17,000 1,920 Climbing FlightAware
09:50PM 42.2620 -87.1800 78° East 470 541 18,000 1,860 Climbing FlightAware
09:51PM 42.2780 -87.0530 80° East 481 554 19,400 1,860 Climbing FlightAware
09:51PM 42.2850 -86.9380 85° East 492 566 20,500 1,680 Climbing FlightAware
09:52PM 42.2880 -86.8650 87° East 499 574 21,100 1,620 Climbing FlightAware
09:53PM 42.2880 -86.6900 90° East 508 585 22,700 1,620 Climbing FlightAware
09:53PM 42.2770 -86.5390 96° East 518 596 24,000 1,500 Climbing FlightAware
09:54PM 42.2694 -86.4301 95° East 530 610 24,800 1,260 Climbing FlightAware ADS-B (KPWK)
09:55PM 42.2588 -86.2791 95° East 543 625 25,700 1,200 Climbing FlightAware ADS-B (KPWK)
09:55PM 42.2504 -86.1457 95° East 555 639 26,500 1,140 Climbing FlightAware ADS-B (KPWK)
09:56PM 42.2390 -85.9390 94° East 569 655 27,600 1,200 Climbing FlightAware
09:57PM 42.2320 -85.7930 94° East 577 664 28,500 1,200 Climbing FlightAware
09:58PM 42.2230 -85.6030 94° East 587 676 29,500 1,080 Climbing FlightAware
09:59PM 42.2310 -85.3670 87° East 600 690 30,700 660 Climbing FlightAware
10:00PM 42.2560 -85.1290 82° East 599 689 31,000 120 Climbing FlightAware
10:01PM 42.2740 -84.9460 82° East 596 686 31,000  Level FlightAware
10:02PM 42.2950 -84.7380 82° East 595 685 31,000  Level FlightAware
10:02PM 42.3060 -84.6350 82° East 594 684 31,000  Level FlightAware
10:03PM 42.3170 -84.5270 82° East 593 682 31,000  Level FlightAware
10:03PM 42.3290 -84.4140 82° East 592 681 31,000  Level FlightAware
10:04PM 42.3650 -84.2030 77° East 592 681 31,000  Level FlightAware
10:05PM 42.4120 -83.9990 73° East 592 681 31,000  Level FlightAware
10:06PM 42.4580 -83.7920 73° East 590 679 31,000  Level FlightAware
10:07PM 42.4930 -83.6370 73° East 590 679 31,000  Level FlightAware
10:08PM 42.5350 -83.4580 72° East 589 678 31,000  Level FlightAware
10:08PM 42.5680 -83.3140 73° East 590 679 31,000  Level FlightAware
10:09PM 42.6150 -83.1060 73° East 590 679 31,000  Level FlightAware
10:10PM 42.6370 -83.0090 73° East 590 679 31,000  Level FlightAware
10:11PM 42.6820 -82.8080 73° East 587 676 31,000  Level FlightAware
10:11PM 42.7020 -82.7210 73° East 585 673 31,000  Level FlightAware
10:12PM 42.7540 -82.4850 73° East 583 671 31,000  Level FlightAware
10:13PM 42.7860 -82.3370 74° East 582 670 31,000  Level FlightAware
10:14PM 42.8260 -82.1510 74° East 581 669 31,000  Level FlightAware
10:15PM 42.8660 -81.9650 74° East 579 666 31,000  Level FlightAware
10:16PM 42.9030 -81.7920 74° East 576 663 31,000  Level FlightAware
10:17PM 42.9490 -81.5760 74° East 576 663 31,000  Level FlightAware
10:18PM 42.9820 -81.4180 74° East 574 661 31,000  Level FlightAware
10:18PM 43.0300 -81.1990 73° East 569 655 31,000  Level FlightAware
10:19PM 43.0860 -81.0580 61° Northeast 561 646 31,000  Level FlightAware
10:20PM 43.1790 -80.8830 54° Northeast 559 643 31,000  Level FlightAware
10:21PM 43.2650 -80.7210 54° Northeast 562 647 31,000  Level FlightAware
10:22PM 43.2765 -80.6993 54° Northeast 563 648 31,000  Level FlightAware ADS-B (CZBA)
10:23PM 43.4160 -80.4330 54° Northeast 559 643 31,000  Level FlightAware
10:24PM 43.4870 -80.2960 54° Northeast 558 642 31,000  Level FlightAware
10:25PM 43.5232 -80.2262 54° Northeast 558 642 31,000  Level FlightAware ADS-B
10:25PM 43.5919 -80.0932 54° Northeast 560 644 31,000  Level FlightAware ADS-B (CZBA)
10:26PM 43.6650 -79.9510 55° Northeast 559 643 31,000  Level FlightAware
10:27PM 43.7490 -79.7870 55° Northeast 557 641 31,000  Level FlightAware
10:27PM 43.8270 -79.6350 55° Northeast 556 640 31,000  Level FlightAware
10:28PM 43.8990 -79.4780 57° Northeast 556 640 31,000  Level FlightAware
10:29PM 43.9740 -79.3120 58° Northeast 547 629 31,000  Level FlightAware
10:30PM 44.0490 -79.1450 58° Northeast 545 627 31,000  Level FlightAware
10:31PM 44.1200 -78.9890 58° Northeast 544 626 31,000  Level FlightAware
10:32PM 44.1880 -78.8360 58° Northeast 546 628 31,000  Level FlightAware
10:32PM 44.2130 -78.7770 59° Northeast 547 629 31,000  Level FlightAware
10:33PM 44.2670 -78.6520 59° Northeast 548 631 31,000  Level FlightAware
10:34PM 44.3420 -78.4750 59° Northeast 548 631 31,000  Level FlightAware
10:35PM 44.4080 -78.3180 59° Northeast 548 631 31,000  Level FlightAware
10:36PM 44.4710 -78.1700 59° Northeast 549 632 31,000  Level FlightAware
10:37PM 44.5480 -77.9840 60° Northeast 547 629 31,000  Level FlightAware
10:37PM 44.5870 -77.8910 59° Northeast 546 628 31,000  Level FlightAware
10:38PM 44.6750 -77.6800 60° Northeast 543 625 31,000  Level FlightAware
10:39PM 44.7150 -77.5830 60° Northeast 544 626 31,000  Level FlightAware
10:40PM 44.7820 -77.4180 60° Northeast 545 627 31,000  Level FlightAware
10:40PM 44.8450 -77.2640 60° Northeast 546 628 31,000  Level FlightAware
10:41PM 44.9050 -77.1160 60° Northeast 546 628 31,000  Level FlightAware
10:42PM 44.9480 -77.0100 60° Northeast 545 627 31,000  Level FlightAware
10:43PM 45.0170 -76.8380 60° Northeast 546 628 31,000  Level FlightAware
10:43PM 45.0600 -76.7310 60° Northeast 546 628 31,000  Level FlightAware
10:44PM 45.1230 -76.5710 61° Northeast 544 626 31,000  Level FlightAware
10:45PM 44.8750 -77.1890 241° Southwest 548 631 31,000  Level FlightAware ADS-B
10:46PM 44.8830 -77.1710 58° Northeast 547 629 31,000  Level FlightAware ADS-B
10:47PM 44.8940 -77.1430 61° Northeast 547 629 31,000  Level FlightAware ADS-B
10:47PM 44.9030 -77.1220 59° Northeast 547 629 31,000  Level FlightAware ADS-B
10:48PM 44.9150 -77.0910 61° Northeast 547 629 31,000  Level FlightAware ADS-B
10:48PM 44.9290 -77.0580 59° Northeast 547 629 31,000  Level FlightAware ADS-B
10:49PM 45.4900 -75.6290 60° Northeast 544 626 31,000  Level FlightAware
10:50PM 45.5570 -75.4530 61° Northeast 540 621 31,000  Level FlightAware
10:51PM 45.6220 -75.2830 61° Northeast 540 621 31,000  Level FlightAware
10:52PM 45.6940 -75.0920 62° Northeast 539 620 31,000  Level FlightAware
10:53PM 45.7540 -74.9320 62° Northeast 539 620 31,000  Level FlightAware
10:54PM 45.8290 -74.7300 62° Northeast 536 617 31,000  Level FlightAware
10:55PM 45.7240 -75.0130 242° Southwest 540 621 31,000  Level FlightAware ADS-B
10:55PM 45.7450 -74.9560 62° Northeast 540 621 31,000  Level FlightAware ADS-B
10:56PM 45.7850 -74.8480 62° Northeast 539 620 31,000  Level FlightAware ADS-B
10:57PM 45.8000 -74.8090 61° Northeast 539 620 31,000  Level FlightAware ADS-B
10:57PM 45.8050 -74.7950 63° Northeast 538 619 31,000  Level FlightAware ADS-B
10:58PM 45.8290 -74.7300 62° Northeast 538 619 31,000  Level FlightAware ADS-B
10:58PM 45.8360 -74.7120 61° Northeast 537 618 31,000  Level FlightAware ADS-B
10:59PM 45.8430 -74.6930 62° Northeast 537 618 31,000  Level FlightAware ADS-B
10:59PM 45.8480 -74.6790 63° Northeast 537 618 31,000  Level FlightAware ADS-B
11:00PM 45.9210 -74.4800 62° Northeast 535 616 31,000  Level FlightAware ADS-B
11:00PM 45.9310 -74.4540 61° Northeast 535 616 31,000  Level FlightAware ADS-B
11:01PM 45.9350 -74.4420 64° Northeast 535 616 31,000  Level FlightAware ADS-B
11:01PM 45.9400 -74.4300 59° Northeast 535 616 31,000  Level FlightAware ADS-B
11:02PM 45.9450 -74.4140 66° East 535 616 31,000  Level FlightAware ADS-B
11:03PM 46.0060 -74.2480 62° Northeast 536 617 31,000  Level FlightAware ADS-B
11:04PM 46.4950 -72.8690 62° Northeast 534 615 31,000  Level FlightAware
11:04PM 46.5390 -72.7430 63° Northeast 528 608 31,000  Level FlightAware
11:05PM 46.5895 -72.5954 63° Northeast 530 610 31,000  Level FlightAware ADS-B
11:06PM 46.6279 -72.4830 64° Northeast 530 610 31,000  Level FlightAware ADS-B
11:07PM 46.6793 -72.3317 64° Northeast 531 611 31,000  Level FlightAware ADS-B
11:07PM 46.7135 -72.2306 64° Northeast 531 611 31,000  Level FlightAware ADS-B
11:08PM 46.7597 -72.0932 64° Northeast 530 610 31,000  Level FlightAware ADS-B
11:08PM 46.7918 -71.9974 64° Northeast 531 611 31,000  Level FlightAware ADS-B
11:09PM 46.8449 -71.8382 64° Northeast 530 610 31,000  Level FlightAware ADS-B
11:10PM 46.8896 -71.7030 64° Northeast 531 611 31,000  Level FlightAware ADS-B
11:11PM 46.9331 -71.5711 64° Northeast 531 611 31,000  Level FlightAware ADS-B
11:11PM 46.9658 -71.4714 64° Northeast 532 612 31,000  Level FlightAware ADS-B
11:12PM 47.0119 -71.3306 64° Northeast 531 611 31,000  Level FlightAware ADS-B
11:12PM 47.0444 -71.2307 64° Northeast 532 612 31,000  Level FlightAware ADS-B
11:13PM 46.1750 -73.7800 245° Southwest 540 621 31,000  Level FlightAware ADS-B
11:13PM 47.0904 -71.0882 63° Northeast 535 616 31,000  Level FlightAware ADS-B
11:13PM 46.1860 -73.7480 245° Southwest 541 623 31,000  Level FlightAware ADS-B
11:14PM 47.1224 -70.9893 63° Northeast 536 617 31,000  Level FlightAware ADS-B
11:14PM 46.1950 -73.7240 245° Southwest 541 623 31,000  Level FlightAware ADS-B
11:15PM 47.2185 -70.6884 63° Northeast 536 617 31,000  Level FlightAware ADS-B
11:15PM 46.2060 -73.6930 245° Southwest 540 621 31,000  Level FlightAware ADS-B
11:16PM 47.2657 -70.5393 63° Northeast 538 619 31,000  Level FlightAware ADS-B
11:16PM 46.2120 -73.6770 245° Southwest 540 621 31,000  Level FlightAware ADS-B
11:17PM 47.3018 -70.4248 63° Northeast 535 616 31,000  Level FlightAware ADS-B
11:17PM 47.3515 -70.2665 65° Northeast 537 618 31,000  Level FlightAware ADS-B
11:18PM 47.3946 -70.1282 65° Northeast 538 619 31,000  Level FlightAware ADS-B
11:19PM 47.4600 -69.9170 65° Northeast 537 618 31,000  Level FlightAware
11:19PM 47.4870 -69.8290 66° East 535 616 31,000  Level FlightAware
11:20PM 46.2290 -73.6300 246° West 539 620 31,000  Level FlightAware ADS-B
11:21PM 46.2410 -73.5950 64° Northeast 539 620 31,000  Level FlightAware ADS-B
11:21PM 47.6110 -69.4210 63° Northeast 536 617 31,000  Level FlightAware
11:23PM 47.6670 -69.2430 65° Northeast 536 617 31,000  Level FlightAware
11:24PM 47.6112 -69.4212 245° Southwest 541 623 31,000  Level FlightAware ADS-B
11:29PM 46.4350 -73.0430 246° West 535 616 31,000  Level FlightAware ADS-B
11:30PM 46.4380 -73.0350 61° Northeast 535 616 31,000  Level FlightAware ADS-B
11:31PM 46.4510 -72.9970 64° Northeast 535 616 31,000  Level FlightAware ADS-B
11:31PM 46.4680 -72.9470 64° Northeast 535 616 31,000  Level FlightAware ADS-B
11:32PM 46.4760 -72.9250 62° Northeast 535 616 31,000  Level FlightAware ADS-B
11:32PM 46.4820 -72.9080 63° Northeast 536 617 31,000  Level FlightAware ADS-B
11:33PM 46.4850 -72.9000 61° Northeast 536 617 31,000  Level FlightAware ADS-B
11:34PM 46.4920 -72.8780 65° Northeast 535 616 31,000  Level FlightAware ADS-B
11:34PM 46.4980 -72.8600 64° Northeast 535 616 31,000 840 Level FlightAware ADS-B
11:36PM 48.2620 -66.3210 66° East 538 619 32,900 780 Climbing FlightAware
11:37PM 48.2940 -66.1490 74° East 537 618 33,000 60 Climbing FlightAware
11:38PM 48.3270 -65.9630 75° East 538 619 33,000  Level FlightAware
11:39PM 48.3630 -65.7610 75° East 536 617 33,000  Level FlightAware
11:39PM 48.3930 -65.5900 75° East 533 613 33,000  Level FlightAware
11:40PM 48.4130 -65.4800 75° East 533 613 33,000  Level FlightAware
11:41PM 48.4430 -65.3010 76° East 536 617 33,000  Level FlightAware
11:41PM 48.4620 -65.1930 75° East 536 617 33,000  Level FlightAware
11:42PM 48.4950 -64.9970 76° East 536 617 33,000  Level FlightAware
11:43PM 48.5220 -64.8380 76° East 536 617 33,000  Level FlightAware
11:44PM 48.5540 -64.6490 76° East 540 621 33,000  Level FlightAware
11:44PM 48.5680 -64.5630 76° East 543 625 33,000  Level FlightAware
11:45PM 48.5990 -64.3710 76° East 543 625 33,000  Level FlightAware
11:46PM 48.6190 -64.2530 76° East 542 624 33,000  Level FlightAware
11:46PM 48.6340 -64.1600 76° East 543 625 33,000  Level FlightAware
11:47PM 48.6660 -63.9580 76° East 545 627 33,000  Level FlightAware
11:48PM 48.6990 -63.7510 76° East 547 629 33,000  Level FlightAware
11:48PM 48.7140 -63.6550 77° East 548 631 33,000  Level FlightAware
11:49PM 48.7340 -63.5250 77° East 548 631 33,000  Level FlightAware
11:49PM 48.7560 -63.3860 76° East 550 633 33,000  Level FlightAware
11:50PM 48.7880 -63.1750 77° East 550 633 33,000  Level FlightAware
11:51PM 48.8070 -63.0450 77° East 551 634 33,000  Level FlightAware
11:52PM 48.8380 -62.8410 77° East 551 634 33,000  Level FlightAware
11:53PM 48.8690 -62.6300 77° East 549 632 33,000  Level FlightAware
11:54PM 48.8960 -62.4450 77° East 545 627 33,000  Level FlightAware
11:55PM 48.9270 -62.2260 78° East 543 625 33,000  Level FlightAware
11:55PM 48.9490 -62.0720 78° East 543 625 33,000  Level FlightAware
11:56PM 48.9750 -61.8920 78° East 539 620 33,000  Level FlightAware
11:57PM 48.9970 -61.7310 78° East 539 620 33,000  Level FlightAware
11:57PM 49.0080 -61.6550 78° East 539 620 33,000  Level FlightAware
11:59PM 49.0390 -61.4270 78° East 539 620 33,000  Level FlightAware
11:59PM 49.0500 -61.3510 78° East 539 620 33,000  Level FlightAware
12:00AM 49.0760 -61.1610 78° East 539 620 33,000  Level FlightAware
12:01AM 49.0980 -61.0060 78° East 539 620 33,000  Level FlightAware
12:02AM 49.1190 -60.8510 78° East 539 620 33,000  Level FlightAware
12:02AM 49.1350 -60.7370 78° East 539 620 33,000  Level FlightAware
12:03AM 49.1560 -60.5850 78° East 539 620 33,000  Level FlightAware
12:03AM 49.1670 -60.5060 78° East 539 620 33,000  Level FlightAware
12:04AM 49.1940 -60.3150 78° East 539 620 33,000  Level FlightAware
12:05AM 49.2200 -60.1250 78° East 539 620 33,000  Level FlightAware
12:07AM 49.2920 -59.4130 81° East 536 617 33,000  Level FlightAware
12:08AM 49.3090 -59.2670 80° East 533 613 33,000  Level FlightAware
12:08AM 49.3260 -59.1140 80° East 533 613 33,000  Level FlightAware
12:09AM 49.3380 -59.0050 80° East 531 611 33,000  Level FlightAware
12:10AM 49.3660 -58.7610 80° East 530 610 33,000  Level FlightAware
12:11AM 49.3980 -58.5640 76° East 524 603 33,000  Level FlightAware
12:12AM 49.4390 -58.3820 71° East 527 606 33,000  Level FlightAware
12:13AM 49.4810 -58.1930 71° East 526 605 33,000  Level FlightAware
12:13AM 49.5010 -58.1040 71° East 525 604 33,000  Level FlightAware
12:14AM 49.5210 -58.0170 70° East 526 605 33,000  Level FlightAware
12:14AM 49.5520 -57.8780 71° East 527 606 33,000  Level FlightAware
12:15AM 49.5750 -57.7760 71° East 525 604 33,000  Level FlightAware
12:16AM 49.6200 -57.5760 71° East 526 605 33,000  Level FlightAware
12:16AM 49.6390 -57.4880 72° East 526 605 33,000  Level FlightAware
12:17AM 49.6710 -57.3440 71° East 526 605 33,000  Level FlightAware
12:18AM 49.7120 -57.1540 71° East 523 602 33,000  Level FlightAware
12:18AM 49.7440 -57.0100 71° East 524 603 33,000  Level FlightAware
12:19AM 49.7780 -56.8480 72° East 528 608 33,000  Level FlightAware
12:20AM 49.8240 -56.6340 71° East 528 608 33,000  Level FlightAware
12:21AM 49.8530 -56.4980 72° East 531 611 33,000  Level FlightAware
12:21AM 49.8770 -56.3810 72° East 531 611 33,000  Level FlightAware
12:22AM 49.9190 -56.1820 72° East 532 612 33,000  Level FlightAware
12:23AM 49.9410 -56.0740 72° East 530 610 33,000  Level FlightAware
12:23AM 49.9780 -55.8930 72° East 528 608 33,000  Level FlightAware
12:24AM 50.0180 -55.6980 72° East 527 606 33,000  Level FlightAware
12:25AM 50.0590 -55.4960 72° East 526 605 33,000  Level FlightAware
12:26AM 50.0980 -55.2990 73° East 524 603 33,000  Level FlightAware
12:27AM 50.1200 -55.1890 73° East 524 603 33,000  Level FlightAware
12:27AM 50.1440 -55.0640 73° East 523 602 33,000  Level FlightAware
12:28AM 50.1780 -54.8860 73° East 525 604 33,000  Level FlightAware
12:29AM 50.1960 -54.7940 73° East 525 604 33,000  Level FlightAware
12:30AM 50.2370 -54.5760 74° East 525 604 33,000  Level FlightAware
12:30AM 50.2750 -54.3760 73° East 527 606 33,000  Level FlightAware
12:32AM 50.3190 -54.1380 74° East 527 606 33,000  Level FlightAware
12:32AM 50.3560 -53.9420 73° East 528 608 33,000  Level FlightAware
12:33AM 50.3890 -53.7560 74° East 530 610 33,000  Level FlightAware
12:34AM 50.4230 -53.5700 74° East 529 609 33,000  Level FlightAware
12:35AM 50.4460 -53.4400 74° East 528 608 33,000  Level FlightAware
12:36AM 50.4820 -53.2390 74° East 526 605 33,000  Level FlightAware
12:36AM 50.5120 -53.0650 75° East 526 605 33,000  Level FlightAware
12:37AM 50.5330 -52.9490 74° East 526 605 33,000  Level FlightAware
12:38AM 50.5670 -52.7620 74° East 526 605 33,000  Level FlightAware
12:39AM 50.5880 -52.6490 74° East 526 605 33,000  Level FlightAware
12:39AM 50.6160 -52.4950 74° East 526 605 33,000  Level FlightAware
12:40AM 50.6290 -52.4200 75° East 526 605 33,000  Level FlightAware
12:40AM 50.6500 -52.3070 74° East 526 605 33,000  Level FlightAware
12:42AM 50.6850 -52.1160 74° East 526 605 33,000  Level FlightAware
12:42AM 50.7050 -52.0030 74° East 526 605 33,000  Level FlightAware
12:43AM 50.7340 -51.8460 74° East 526 605 33,000  Level FlightAware
12:43AM 50.7470 -51.7700 75° East 526 605 33,000  Level FlightAware
12:44AM 50.7750 -51.6190 74° East 526 605 33,000  Level FlightAware
12:45AM 50.7960 -51.5030 74° East 526 605 33,000  Level FlightAware
12:45AM 50.8160 -51.3900 74° East 526 605 33,000  Level FlightAware
12:46AM 50.8430 -51.2390 74° East 526 605 33,000  Level FlightAware
12:47AM 50.8667 -50.6833 74° East 520 598 33,000  Level Gander Center
12:48AM 50.9167 -50.4667 70° East 530 610 33,000  Level Gander Center
12:50AM 50.9833 -50.0167 77° East 530 610 33,000  Level Gander Center
12:51AM 51.0333 -49.8000 70° East 520 598 33,000  Level Gander Center
12:52AM 51.0667 -49.6000 75° East 520 598 33,000  Level Gander Center
12:54AM 51.1535 -49.2521 68° East  Level FlightAware Approximate
01:01AM 51.5364 -47.6476 68° East  Level FlightAware Approximate
01:02AM 51.5893 -47.4162 70° East  Level FlightAware Approximate
01:03AM 51.6418 -47.1843 70° East  Level FlightAware Approximate
01:04AM 51.6938 -46.9518 70° East  Level FlightAware Approximate
01:05AM 51.7453 -46.7188 70° East  Level FlightAware Approximate
01:06AM 51.7964 -46.4853 70° East  Level FlightAware Approximate
01:07AM 51.8470 -46.2513 71° East  Level FlightAware Approximate
01:08AM 51.8971 -46.0167 71° East  Level FlightAware Approximate
01:09AM 51.9468 -45.7816 71° East  Level FlightAware Approximate
01:10AM 51.9960 -45.5460 71° East  Level FlightAware Approximate
01:11AM 52.0448 -45.3098 71° East  Level FlightAware Approximate
01:12AM 52.0930 -45.0732 72° East  Level FlightAware Approximate
01:13AM 52.1408 -44.8360 72° East  Level FlightAware Approximate
01:14AM 52.1881 -44.5983 72° East  Level FlightAware Approximate
01:15AM 52.2350 -44.3602 72° East  Level FlightAware Approximate
01:16AM 52.2813 -44.1215 72° East  Level FlightAware Approximate
01:17AM 52.3272 -43.8823 72° East  Level FlightAware Approximate
01:18AM 52.3740 -43.6435 72° East  Level FlightAware Approximate
01:19AM 52.4205 -43.4042 72° East  Level FlightAware Approximate
01:20AM 52.4666 -43.1643 72° East  Level FlightAware Approximate
01:21AM 52.5121 -42.9240 73° East  Level FlightAware Approximate
01:22AM 52.5558 -42.6825 73° East  Level FlightAware Approximate
01:23AM 52.5987 -42.4404 74° East  Level FlightAware Approximate
01:24AM 52.6412 -42.1978 74° East  Level FlightAware Approximate
01:25AM 52.6832 -41.9548 74° East  Level FlightAware Approximate
01:26AM 52.7247 -41.7113 74° East  Level FlightAware Approximate
01:27AM 52.7656 -41.4673 74° East  Level FlightAware Approximate
01:28AM 52.8061 -41.2229 75° East  Level FlightAware Approximate
01:29AM 52.8461 -40.9780 75° East  Level FlightAware Approximate
01:30AM 52.8856 -40.7327 75° East  Level FlightAware Approximate
01:31AM 52.9245 -40.4869 75° East  Level FlightAware Approximate
01:32AM 52.9630 -40.2407 75° East  Level FlightAware Approximate
01:33AM 53.0009 -39.9940 76° East  Level FlightAware Approximate
01:34AM 53.0365 -39.7462 76° East  Level FlightAware Approximate
01:35AM 53.0716 -39.4980 77° East  Level FlightAware Approximate
01:36AM 53.1062 -39.2494 77° East  Level FlightAware Approximate
01:37AM 53.1403 -39.0003 77° East  Level FlightAware Approximate
01:38AM 53.1738 -38.7509 77° East  Level FlightAware Approximate
01:39AM 53.2068 -38.5011 77° East  Level FlightAware Approximate
01:40AM 53.2393 -38.2509 78° East  Level FlightAware Approximate
01:41AM 53.2713 -38.0004 78° East  Level FlightAware Approximate
01:42AM 53.3028 -37.7495 78° East  Level FlightAware Approximate
01:43AM 53.3337 -37.4982 78° East  Level FlightAware Approximate
01:44AM 53.3641 -37.2465 78° East  Level FlightAware Approximate
01:45AM 53.3940 -36.9945 79° East  Level FlightAware Approximate
01:46AM 53.4233 -36.7421 79° East  Level FlightAware Approximate
01:47AM 53.4521 -36.4894 79° East  Level FlightAware Approximate
01:48AM 53.4804 -36.2364 79° East  Level FlightAware Approximate
01:49AM 53.5081 -35.9830 79° East  Level FlightAware Approximate
01:50AM 53.5353 -35.7293 80° East  Level FlightAware Approximate
01:51AM 53.5619 -35.4753 80° East  Level FlightAware Approximate
01:52AM 53.5881 -35.2209 80° East  Level FlightAware Approximate
01:53AM 53.6136 -34.9663 80° East  Level FlightAware Approximate
01:54AM 53.6387 -34.7113 80° East  Level FlightAware Approximate
01:55AM 53.6632 -34.4560 81° East  Level FlightAware Approximate
01:56AM 53.6871 -34.2005 81° East  Level FlightAware Approximate
01:57AM 53.7105 -33.9446 81° East  Level FlightAware Approximate
01:58AM 53.7334 -33.6885 81° East  Level FlightAware Approximate
01:59AM 53.7557 -33.4321 82° East  Level FlightAware Approximate
02:00AM 53.7775 -33.1754 82° East  Level FlightAware Approximate
02:01AM 53.7987 -32.9184 82° East  Level FlightAware Approximate
02:02AM 53.8194 -32.6612 82° East  Level FlightAware Approximate
02:03AM 53.8395 -32.4038 82° East  Level FlightAware Approximate
02:04AM 53.8591 -32.1461 83° East  Level FlightAware Approximate
02:05AM 53.8781 -31.8882 83° East  Level FlightAware Approximate
02:06AM 53.8965 -31.6300 83° East  Level FlightAware Approximate
02:07AM 53.9145 -31.3716 83° East  Level FlightAware Approximate
02:08AM 53.9318 -31.1130 83° East  Level FlightAware Approximate
02:09AM 53.9486 -30.8542 84° East  Level FlightAware Approximate
02:10AM 53.9648 -30.5952 84° East  Level FlightAware Approximate
02:11AM 53.9805 -30.3360 84° East  Level FlightAware Approximate
02:12AM 53.9956 -30.0766 84° East  Level FlightAware Approximate
02:13AM 54.0075 -29.8166 86° East  Level FlightAware Approximate
02:14AM 54.0176 -29.5564 86° East  Level FlightAware Approximate
02:15AM 54.0272 -29.2960 86° East  Level FlightAware Approximate
02:16AM 54.0362 -29.0355 87° East  Level FlightAware Approximate
02:17AM 54.0447 -28.7749 87° East  Level FlightAware Approximate
02:18AM 54.0526 -28.5142 87° East  Level FlightAware Approximate
02:19AM 54.0599 -28.2533 87° East  Level FlightAware Approximate
02:20AM 54.0667 -27.9925 87° East  Level FlightAware Approximate
02:21AM 54.0729 -27.7315 88° East  Level FlightAware Approximate
02:22AM 54.0785 -27.4704 88° East  Level FlightAware Approximate
02:23AM 54.0836 -27.2093 88° East  Level FlightAware Approximate
02:24AM 54.0881 -26.9481 88° East  Level FlightAware Approximate
02:25AM 54.0920 -26.6869 88° East  Level FlightAware Approximate
02:26AM 54.0954 -26.4256 89° East  Level FlightAware Approximate
02:27AM 54.0982 -26.1643 89° East  Level FlightAware Approximate
02:28AM 54.1004 -25.9029 89° East  Level FlightAware Approximate
02:29AM 54.1021 -25.6416 89° East  Level FlightAware Approximate
02:30AM 54.1032 -25.3802 89° East  Level FlightAware Approximate
02:31AM 54.1037 -25.1188 90° East  Level FlightAware Approximate
02:32AM 54.1037 -24.8574 90° East  Level FlightAware Approximate
02:33AM 54.1031 -24.5960 90° East  Level FlightAware Approximate
02:34AM 54.1020 -24.3346 90° East  Level FlightAware Approximate
02:35AM 54.1003 -24.0732 91° East  Level FlightAware Approximate
02:36AM 54.0980 -23.8118 91° East  Level FlightAware Approximate
02:37AM 54.0951 -23.5505 91° East  Level FlightAware Approximate
02:38AM 54.0917 -23.2892 91° East  Level FlightAware Approximate
02:39AM 54.0877 -23.0280 91° East  Level FlightAware Approximate
02:40AM 54.0831 -22.7668 92° East  Level FlightAware Approximate
02:41AM 54.0780 -22.5057 92° East  Level FlightAware Approximate
02:42AM 54.0723 -22.2447 92° East  Level FlightAware Approximate
02:43AM 54.0661 -21.9837 92° East  Level FlightAware Approximate
02:44AM 54.0593 -21.7228 92° East  Level FlightAware Approximate
02:45AM 54.0519 -21.4620 93° East  Level FlightAware Approximate
02:46AM 54.0439 -21.2013 93° East  Level FlightAware Approximate
02:47AM 54.0354 -20.9407 93° East  Level FlightAware Approximate
02:48AM 54.0264 -20.6802 93° East  Level FlightAware Approximate
02:49AM 54.0167 -20.4198 93° East  Level FlightAware Approximate
02:50AM 54.0065 -20.1596 94° East  Level FlightAware Approximate
02:51AM 54.0021 -19.8992 88° East  Level FlightAware Approximate
02:52AM 54.0071 -19.6386 88° East  Level FlightAware Approximate
02:53AM 54.0116 -19.3779 88° East  Level FlightAware Approximate
02:54AM 54.0155 -19.1171 88° East  Level FlightAware Approximate
02:55AM 54.0189 -18.8563 89° East  Level FlightAware Approximate
02:56AM 54.0216 -18.5955 89° East  Level FlightAware Approximate
02:57AM 54.0239 -18.3346 89° East  Level FlightAware Approximate
02:58AM 54.0255 -18.0737 89° East  Level FlightAware Approximate
02:59AM 54.0266 -17.8128 89° East  Level FlightAware Approximate
03:00AM 54.0271 -17.5519 90° East  Level FlightAware Approximate
03:01AM 54.0271 -17.2910 90° East  Level FlightAware Approximate
03:02AM 54.0265 -17.0301 90° East  Level FlightAware Approximate
03:03AM 54.0253 -16.7691 90° East  Level FlightAware Approximate
03:04AM 54.0236 -16.5082 91° East  Level FlightAware Approximate
03:05AM 54.0213 -16.2474 91° East  Level FlightAware Approximate
03:06AM 54.0184 -15.9866 91° East  Level FlightAware Approximate
03:07AM 54.0150 -15.7258 91° East  Level FlightAware Approximate
03:08AM 54.0110 -15.4650 91° East  Level FlightAware Approximate
03:09AM 54.0064 -15.2043 92° East  Level FlightAware Approximate
03:10AM 54.0013 -14.9437 92° East  Level FlightAware Approximate
03:11AM 53.9975 -14.6830 92° East  Level FlightAware Approximate
03:11AM 53.9860 -14.2060 92° East 613 705 35,000  Level FlightAware
03:11AM 53.9820 -14.0360 92° East 613 705 35,000  Level FlightAware
03:12AM 53.9922 -14.4225 92° East  Level FlightAware Approximate
03:12AM 53.9750 -13.7530 92° East 611 703 35,000  Level FlightAware
03:13AM 53.9720 -13.6330 92° East 611 703 35,000  Level FlightAware
03:13AM 53.9670 -13.4570 93° East 611 703 35,000  Level FlightAware
03:14AM 53.9630 -13.2960 92° East 612 704 35,000  Level FlightAware
03:15AM 53.9550 -13.0260 93° East 612 704 35,000  Level FlightAware
03:15AM 53.9490 -12.8470 93° East 611 703 35,000  Level FlightAware
03:16AM 53.9400 -12.5850 93° East 612 704 35,000  Level FlightAware
03:17AM 53.9280 -12.2500 93° East 612 704 35,000  Level FlightAware
03:18AM 53.9170 -11.9590 94° East 611 703 35,000  Level FlightAware
03:19AM 53.9110 -11.8140 94° East 610 702 35,000  Level FlightAware
03:19AM 53.9040 -11.6510 94° East 611 703 35,000  Level FlightAware
03:20AM 53.8910 -11.3640 94° East 609 701 35,000  Level FlightAware
03:21AM 53.8840 -11.1970 94° East 609 701 35,000  Level FlightAware
03:22AM 53.8770 -11.0560 95° East 611 703 35,000  Level FlightAware
03:22AM 53.8700 -10.9110 95° East 611 703 35,000  Level FlightAware
03:23AM 53.8630 -10.7690 95° East 612 704 35,000  Level FlightAware
03:24AM 53.8480 -10.4800 95° East 612 704 35,000  Level FlightAware
03:24AM 53.8410 -10.3380 95° East 612 704 35,000  Level FlightAware
03:25AM 53.8300 -10.1450 95° East 611 703 35,000  Level FlightAware
03:25AM 53.8220 -10.0040 95° East 610 702 35,000  Level FlightAware
03:26AM 53.8030 -9.6746 95° East 611 703 35,000  Level FlightAware ADS-B
03:27AM 53.7930 -9.5110 96° East 612 704 35,000  Level FlightAware
03:28AM 53.7796 -9.2895 96° East 612 704 35,000  Level FlightAware ADS-B
03:28AM 53.7701 -9.1398 96° East 612 704 35,000  Level FlightAware ADS-B
03:29AM 53.7622 -9.0186 96° East 612 704 35,000  Level FlightAware ADS-B
03:29AM 53.7493 -8.8270 96° East 486 559 35,000  Level FlightAware UK
03:30AM 53.7420 -8.7136 96° East 611 703 35,000  Level FlightAware ADS-B
03:30AM 53.7306 -8.5437 96° East 486 559 35,000  Level FlightAware UK
03:30AM 53.7279 -8.5076 97° East 609 701 35,000  Level FlightAware ADS-B
03:31AM 53.7204 -8.4015 97° East 486 559 35,000  Level FlightAware UK
03:31AM 53.7143 -8.3147 97° East 608 700 35,000  Level FlightAware ADS-B
03:32AM 53.7032 -8.1600 97° East 610 702 35,000  Level FlightAware ADS-B
03:32AM 53.6908 -7.9895 97° East 609 701 35,000  Level FlightAware ADS-B
03:33AM 53.6793 -7.8378 97° East 486 559 35,000  Level FlightAware UK
03:33AM 53.6751 -7.7801 97° East 609 701 35,000  Level FlightAware ADS-B
03:34AM 53.6613 -7.6000 97° East 609 701 35,000  Level FlightAware ADS-B
03:34AM 53.6496 -7.4494 97° East 609 701 35,000  Level FlightAware ADS-B
03:35AM 53.6365 -7.2834 98° East 609 701 35,000  Level FlightAware ADS-B
03:35AM 53.6254 -7.1452 98° East 610 702 35,000  Level FlightAware ADS-B
03:36AM 53.6128 -6.9925 98° East 486 559 35,000  Level FlightAware UK
03:36AM 53.6108 -6.9665 98° East 610 702 35,000 -120 Level FlightAware ADS-B (EIDW / DUB)
03:37AM 53.5892 -6.7111 98° East 488 562 34,900  Descending FlightAware UK
03:37AM 53.5841 -6.6496 98° East 610 702 35,000 120 Climbing FlightAware ADS-B
03:38AM 53.5712 -6.4998 98° East 609 701 35,000  Level FlightAware ADS-B
03:38AM 53.5579 -6.3482 98° East 611 703 35,000  Level FlightAware ADS-B
03:38AM 53.5541 -6.3047 98° East 611 703 35,000  Level FlightAware ADS-B
03:39AM 53.5404 -6.1493 98° East 486 559 35,000  Level FlightAware UK
03:39AM 53.5367 -5.9827 98° East 614 707 35,000  Level FlightAware ADS-B
03:40AM 53.5338 -5.8371 92° East 614 707 35,000  Level FlightAware ADS-B
03:40AM 53.5321 -5.7686 92° East 615 708 35,000  Level FlightAware ADS-B
03:40AM 53.5311 -5.7282 92° East 614 707 35,000  Level FlightAware ADS-B
03:41AM 53.5264 -5.5763 93° East 616 709 35,000  Level FlightAware ADS-B
03:41AM 53.5205 -5.4154 93° East 615 708 35,000  Level FlightAware ADS-B
03:42AM 53.5150 -5.2766 94° East 615 708 35,000  Level FlightAware ADS-B
03:43AM 53.5079 -5.1059 94° East 616 709 35,000  Level FlightAware ADS-B
03:43AM 53.4997 -4.9191 94° East 616 709 35,000  Level FlightAware ADS-B
03:44AM 53.4937 -4.7856 94° East 617 710 35,000  Level FlightAware ADS-B
03:44AM 53.4854 -4.5999 94° East 617 710 35,000  Level FlightAware ADS-B
03:45AM 53.4781 -4.4415 94° East 617 710 35,000  Level FlightAware ADS-B
03:45AM 53.4714 -4.3008 95° East 616 709 35,000  Level FlightAware ADS-B
03:46AM 53.4668 -4.2057 95° East 617 710 35,000  Level FlightAware ADS-B (EPBY / BZG)
03:46AM 53.4590 -4.0460 95° East 617 710 35,000  Level FlightAware
03:47AM 53.4483 -3.8350 95° East 486 559 35,000  Level FlightAware UK
03:47AM 53.4522 -3.9092 95° East 616 709 35,000 -120 Level FlightAware ADS-B (EGCW)
03:48AM 53.4304 -3.4925 95° East 486 559 34,900  Descending FlightAware UK
03:49AM 53.4234 -3.3657 95° East 618 711 35,000 60 Climbing FlightAware ADS-B
03:49AM 53.4154 -3.2231 95° East 619 712 35,000  Level FlightAware ADS-B
03:49AM 53.4141 -3.1988 95° East 617 710 35,000  Level FlightAware ADS-B (EGCD)
03:49AM 53.4121 -3.1646 95° East 618 711 35,000  Level FlightAware ADS-B
03:49AM 53.4105 -3.1366 95° East 617 710 35,000  Level FlightAware ADS-B
03:49AM 53.4092 -3.1143 96° East 617 710 35,000  Level FlightAware ADS-B (KAPA)
03:50AM 53.4059 -3.0582 96° East 618 711 35,000  Level FlightAware ADS-B
03:50AM 53.3999 -2.9546 96° East 618 711 35,000  Level FlightAware ADS-B
03:50AM 53.3957 -2.8849 96° East 618 711 35,000  Level FlightAware ADS-B
03:50AM 53.3931 -2.8417 96° East 617 710 35,000  Level FlightAware ADS-B (EGCD)
03:51AM 53.3869 -2.7373 96° East 617 710 35,000  Level FlightAware ADS-B
03:51AM 53.3864 -2.7293 96° East 616 709 35,000  Level FlightAware ADS-B
03:51AM 53.3781 -2.5941 96° East 618 711 35,000  Level FlightAware ADS-B
03:51AM 53.3783 -2.5983 275° West 618 711 35,000  Level FlightAware ADS-B
03:52AM 53.3685 -2.4409 96° East 618 711 35,000  Level FlightAware ADS-B (EGCD)
03:52AM 53.3671 -2.4186 96° East 618 711 35,000  Level FlightAware ADS-B
03:52AM 53.3597 -2.3035 96° East 617 710 35,000  Level FlightAware ADS-B (EGCD)
03:53AM 53.3552 -2.2340 96° East 616 709 35,000  Level FlightAware ADS-B
03:53AM 53.3436 -2.1020 98° East 618 711 35,000  Level FlightAware ADS-B
03:53AM 53.3327 -1.9972 100° East 615 708 35,000  Level FlightAware ADS-B
03:54AM 53.3287 -1.9594 100° East 615 708 35,000  Level FlightAware ADS-B
03:54AM 53.3260 -1.9338 100° East 614 707 35,000  Level FlightAware ADS-B (KAPA)
03:54AM 53.3212 -1.8875 100° East 614 707 35,000  Level FlightAware ADS-B (KAPA)
03:54AM 53.3156 -1.8348 100° East 614 707 35,000  Level FlightAware ADS-B (KAPA)
03:54AM 53.3133 -1.8129 100° East 614 707 35,000  Level FlightAware ADS-B
03:55AM 53.3010 -1.6943 100° East 616 709 35,000  Level FlightAware ADS-B
03:55AM 53.2970 -1.6555 100° East 617 710 35,000  Level FlightAware ADS-B
03:55AM 53.2901 -1.5885 100° East 617 710 35,000  Level FlightAware ADS-B (EGCD)
03:55AM 53.2811 -1.5003 100° East 618 711 35,000  Level FlightAware ADS-B
03:56AM 53.2725 -1.4153 100° East 619 712 35,000  Level FlightAware ADS-B (EGCW)
03:56AM 53.2663 -1.3552 100° East 619 712 35,000  Level FlightAware ADS-B
03:56AM 53.2577 -1.2711 100° East 619 712 35,000  Level FlightAware ADS-B (KAPA)
03:56AM 53.2514 -1.2100 100° East 620 713 35,000  Level FlightAware ADS-B
03:56AM 53.2504 -1.2001 99° East 620 713 35,000  Level FlightAware ADS-B
03:57AM 53.2366 -1.0666 100° East 620 713 35,000  Level FlightAware ADS-B
03:57AM 53.2329 -1.0313 100° East 620 713 35,000  Level FlightAware ADS-B
03:57AM 53.2272 -0.9778 100° East 619 712 35,000  Level FlightAware ADS-B (KAPA)
03:57AM 53.2174 -0.8856 100° East 619 712 35,000  Level FlightAware ADS-B (KAPA)
03:57AM 53.2142 -0.8556 100° East 619 712 35,000  Level FlightAware ADS-B (KAPA)
03:58AM 53.2068 -0.7861 100° East 620 713 35,000  Level FlightAware ADS-B
03:58AM 53.1983 -0.7077 100° East 621 715 35,000  Level FlightAware ADS-B
03:58AM 53.1844 -0.5806 100° East 621 715 35,000  Level FlightAware ADS-B
03:59AM 53.1806 -0.5454 100° East 620 713 35,000  Level FlightAware ADS-B
03:59AM 53.1749 -0.5016 102° East 621 715 35,000  Level FlightAware ADS-B (KAPA)
03:59AM 53.1706 -0.4744 105° East 621 715 35,000  Level FlightAware ADS-B
03:59AM 53.1679 -0.4578 105° East 621 715 35,000  Level FlightAware ADS-B
03:59AM 53.1434 -0.3206 107° East 621 715 35,000  Level FlightAware ADS-B
03:59AM 53.1434 -0.3206 180° South 621 715 35,000  Level FlightAware ADS-B
04:00AM 53.1180 -0.1792 107° East 623 717 35,000  Level FlightAware ADS-B
04:00AM 53.0912 -0.0330 107° East 622 716 35,000  Level FlightAware ADS-B
04:01AM 53.0833 0.0098 107° East 622 716 35,000  Level FlightAware ADS-B
04:01AM 53.0611 0.1314 107° East 621 715 35,000  Level FlightAware ADS-B
04:01AM 53.0558 0.1601 107° East 621 715 35,000  Level FlightAware ADS-B (EGHH / BOH)
04:01AM 53.0529 0.1755 107° East 618 711 35,000  Level FlightAware ADS-B (EGHH / BOH)
04:02AM 53.0355 0.2690 107° East 621 715 35,000  Level FlightAware ADS-B
04:02AM 53.0278 0.3108 107° East 620 713 35,000  Level FlightAware ADS-B
04:02AM 53.0095 0.4090 107° East 619 712 35,000  Level FlightAware ADS-B
04:02AM 53.0036 0.4407 107° East 619 712 35,000  Level FlightAware ADS-B
04:03AM 52.9841 0.5455 107° East 618 711 35,000  Level FlightAware ADS-B
04:03AM 52.9775 0.5807 107° East 619 712 35,000  Level FlightAware ADS-B
04:03AM 52.9587 0.6813 107° East 618 711 35,000  Level FlightAware ADS-B
04:03AM 52.9499 0.7282 107° East 618 711 35,000  Level FlightAware ADS-B (EPWR / WRO)
04:04AM 52.9322 0.8209 108° East 618 711 35,000  Level FlightAware ADS-B
04:04AM 52.9163 0.9050 107° East 617 710 35,000  Level FlightAware ADS-B
04:04AM 52.9077 0.9572 105° East 617 710 35,000  Level FlightAware ADS-B
04:05AM 52.8869 1.0940 104° East 616 709 35,000  Level FlightAware ADS-B
04:05AM 52.8834 1.1168 104° East 616 709 35,000  Level FlightAware ADS-B
04:05AM 52.8658 1.2320 104° East 617 710 35,000  Level FlightAware ADS-B
04:05AM 52.8530 1.3349 102° East 615 708 35,000  Level FlightAware ADS-B
04:06AM 52.8486 1.3741 101° East 614 707 35,000  Level FlightAware ADS-B
04:06AM 52.8327 1.5128 101° East 613 705 35,000  Level FlightAware ADS-B
04:07AM 52.8142 1.6690 101° East 613 705 35,000  Level FlightAware ADS-B
04:07AM 52.8109 1.6960 102° East 613 705 35,000  Level FlightAware ADS-B (EPWR / WRO)
04:07AM 52.7886 1.8779 101° East 612 704 35,000  Level FlightAware ADS-B
04:08AM 52.7780 1.9612 102° East 611 703 35,000  Level FlightAware ADS-B (KAPA)
04:08AM 52.7780 1.9612 102° East 611 703 35,000  Level FlightAware ADS-B
04:09AM 52.7512 2.1705 102° East 488 562 35,000  Level FlightAware UK
04:09AM 52.7333 2.3075 102° East 488 562 35,000  Level FlightAware UK
04:09AM 52.7200 2.4140 102° East 610 702 35,000  Level FlightAware
04:10AM 52.7158 2.4436 102° East 488 562 35,000  Level FlightAware UK
04:10AM 52.7000 2.5620 102° East 610 702 35,000 -180 Level FlightAware
04:10AM 52.6944 2.6066 102° East 488 562 34,900  Descending FlightAware UK
04:11AM 52.6764 2.7425 102° East 488 562 35,000 60 Climbing FlightAware UK
04:11AM 52.6601 2.8651 102° East 611 703 35,000  Level FlightAware ADS-B (EPWR / WRO)
04:12AM 52.6402 3.0144 102° East 488 562 35,000  Level FlightAware UK
04:12AM 52.6177 3.1781 103° East 488 562 35,000  Level FlightAware UK
04:13AM 52.6060 3.2620 103° East 611 703 35,000  Level FlightAware
04:13AM 52.5876 3.3948 103° East 488 562 35,000  Level FlightAware UK
04:13AM 52.5860 3.4040 103° East 609 701 35,000  Level FlightAware
04:14AM 52.5686 3.5307 103° East 490 564 35,000  Level FlightAware UK
04:14AM 52.5590 3.5790 103° East 609 701 35,000  Level FlightAware
04:14AM 52.5437 3.6627 103° East 488 562 35,000  Level FlightAware UK
04:14AM 52.5290 3.7390 103° East 608 700 35,000  Level FlightAware
04:15AM 52.5139 3.8213 103° East 486 559 35,000  Level FlightAware UK
04:15AM 52.4980 3.9050 103° East 610 702 35,000  Level FlightAware
04:15AM 52.4889 3.9535 103° East 488 562 35,000  Level FlightAware UK
04:16AM 52.4690 4.0590 103° East 609 701 35,000  Level FlightAware
04:16AM 52.4544 4.1385 103° East 488 562 35,000  Level FlightAware UK
04:16AM 52.4340 4.2400 108° East 609 701 35,000  Level FlightAware
04:17AM 52.3981 4.4278 108° East 488 562 35,000  Level FlightAware UK
04:17AM 52.3840 4.5000 107° East 606 697 35,000  Level FlightAware
04:18AM 52.3628 4.6122 107° East 490 564 35,000  Level FlightAware UK
04:18AM 52.3381 4.7429 107° East 490 564 35,000  Level FlightAware UK
04:18AM 52.3370 4.7764 107° East 603 694 35,000  Level FlightAware ADS-B
04:19AM 52.3059 5.0111 102° East 600 690 35,000  Level FlightAware ADS-B
04:20AM 52.2881 5.1534 102° East 599 689 35,000  Level FlightAware ADS-B
04:20AM 52.2690 5.3090 102° East 597 687 35,000  Level FlightAware
04:20AM 52.2653 5.3264 102° East 492 566 35,000  Level FlightAware UK
04:21AM 52.2525 5.4376 102° East 595 685 35,000  Level FlightAware ADS-B
04:21AM 52.2432 5.4830 102° East 490 564 35,000 -180 Level FlightAware UK
04:21AM 52.2307 5.6167 102° East 490 564 34,900  Descending FlightAware UK
04:21AM 52.2300 5.6200 101° East 594 684 35,000  Climbing FlightAware
04:22AM 52.2143 5.7489 101° East 490 564 34,900  Descending FlightAware UK
04:22AM 52.1986 5.8643 102° East 593 682 35,000 60 Climbing FlightAware ADS-B
04:23AM 52.1730 6.0640 102° East 591 680 35,000  Level FlightAware
04:24AM 52.1390 6.3240 102° East 591 680 35,000  Level FlightAware
04:25AM 52.1180 6.4790 102° East 590 679 35,000  Level FlightAware
04:26AM 52.0900 6.6860 102° East 591 680 35,000  Level FlightAware
04:26AM 52.0630 6.8870 102° East 591 680 35,000  Level FlightAware
04:27AM 52.0390 7.0600 103° East 591 680 35,000  Level FlightAware
04:28AM 52.0030 7.3120 103° East 590 679 35,000  Level FlightAware
04:29AM 51.9780 7.4870 103° East 590 679 35,000  Level FlightAware
04:29AM 51.9530 7.6650 103° East 589 678 35,000  Level FlightAware
04:30AM 51.9201 7.8883 103° East 590 679 35,000  Level FlightAware ADS-B
04:31AM 51.8982 8.0359 103° East 590 679 35,000  Level FlightAware ADS-B
04:31AM 51.8788 8.1657 104° East 591 680 35,000  Level FlightAware ADS-B
04:32AM 51.8579 8.3091 103° East 590 679 35,000  Level FlightAware ADS-B
04:33AM 51.8378 8.4836 100° East 585 673 35,000  Level FlightAware ADS-B
04:33AM 51.8210 8.6590 99° East 583 671 35,000  Level FlightAware
04:34AM 51.8033 8.8605 98° East 582 670 35,000  Level FlightAware ADS-B
04:35AM 51.7920 8.9850 98° East 581 669 35,000  Level FlightAware
04:35AM 51.7790 9.1320 98° East 580 667 35,000  Level FlightAware
04:36AM 51.7640 9.3070 98° East 581 669 35,000  Level FlightAware
04:37AM 51.7410 9.5600 98° East 583 671 35,000  Level FlightAware
04:37AM 51.7290 9.6980 98° East 582 670 35,000  Level FlightAware
04:38AM 51.7130 9.8650 99° East 581 669 35,000  Level FlightAware
04:38AM 51.7020 9.9840 98° East 584 672 35,000  Level FlightAware
04:39AM 51.6820 10.1930 99° East 585 673 35,000  Level FlightAware
04:40AM 51.6670 10.3480 99° East 585 673 35,000  Level FlightAware
04:40AM 51.6540 10.4850 99° East 583 671 35,000  Level FlightAware
04:41AM 51.6360 10.6650 99° East 581 669 35,000  Level FlightAware
04:42AM 51.6180 10.8350 100° East 580 667 35,000  Level FlightAware
04:42AM 51.6010 11.0040 99° East 583 671 35,000  Level FlightAware
04:43AM 51.5870 11.1420 99° East 584 672 35,000  Level FlightAware
04:44AM 51.5680 11.3210 100° East 587 676 35,000  Level FlightAware
04:44AM 51.5520 11.4700 100° East 591 680 35,000  Level FlightAware
04:45AM 51.5390 11.5890 100° East 593 682 35,000  Level FlightAware
04:45AM 51.5180 11.7760 100° East 593 682 35,000  Level FlightAware
04:46AM 51.4990 11.9480 100° East 590 679 35,000  Level FlightAware
04:47AM 51.4830 12.0930 100° East 590 679 35,000  Level FlightAware
04:47AM 51.4650 12.2440 101° East 588 677 35,000  Level FlightAware
04:48AM 51.4480 12.3930 100° East 588 677 35,000  Level FlightAware
04:48AM 51.4230 12.5420 105° East 600 690 35,000  Level FlightAware
04:49AM 51.3640 12.7160 118° Southeast 608 700 35,000  Level FlightAware
04:50AM 51.2550 12.9880 123° Southeast 609 701 35,000  Level FlightAware
04:51AM 51.2190 13.0770 123° Southeast 608 700 35,000  Level FlightAware
04:51AM 51.1660 13.2060 123° Southeast 607 699 35,000  Level FlightAware
04:52AM 51.1070 13.3490 123° Southeast 603 694 35,000  Level FlightAware
04:52AM 51.0550 13.4770 123° Southeast 601 692 35,000  Level FlightAware
04:53AM 51.0030 13.6030 123° Southeast 599 689 35,000  Level FlightAware
04:54AM 50.9570 13.7140 123° Southeast 598 688 35,000  Level FlightAware
04:54AM 50.8980 13.8570 123° Southeast 596 686 35,000  Level FlightAware
04:55AM 50.7870 14.0734 129° Southeast 598 688 35,000  Level FlightAware ADS-B (LKPR / PRG)
04:56AM 50.7059 14.2178 132° Southeast 597 687 35,000  Level FlightAware ADS-B (LKPR / PRG)
04:57AM 50.6049 14.4011 131° Southeast 595 685 35,000  Level FlightAware ADS-B (LKPR / PRG)
04:58AM 50.5361 14.5271 131° Southeast 592 681 35,000  Level FlightAware ADS-B (LKPR / PRG)
04:58AM 50.4841 14.6224 131° Southeast 592 681 35,000  Level FlightAware ADS-B (LKPR / PRG)
04:59AM 50.4305 14.7207 131° Southeast 593 682 35,000  Level FlightAware ADS-B (LKPR / PRG)
04:59AM 50.3745 14.8225 131° Southeast 595 685 35,000  Level FlightAware ADS-B (LKPR / PRG)
05:00AM 50.3080 14.9433 131° Southeast 596 686 35,000  Level FlightAware ADS-B (LKPR / PRG)
05:00AM 50.2330 15.0790 131° Southeast 594 684 35,000  Level FlightAware
05:01AM 50.1335 15.3133 123° Southeast 584 672 35,000  Level FlightAware ADS-B (EIDW / DUB)
05:02AM 50.0914 15.4325 119° Southeast 580 667 35,000  Level FlightAware ADS-B (EIDW / DUB)
05:03AM 50.0517 15.5457 119° Southeast 579 666 35,000  Level FlightAware ADS-B (EIDW / DUB)
05:03AM 50.0149 15.6500 119° Southeast 575 662 35,000  Level FlightAware ADS-B (EIDW / DUB)
05:04AM 49.9587 15.8081 119° Southeast 571 657 35,000  Level FlightAware ADS-B (EIDW / DUB)
05:04AM 49.9231 15.9077 119° Southeast 571 657 35,000  Level FlightAware ADS-B (EIDW / DUB)
05:05AM 49.8812 16.0245 119° Southeast 569 655 35,000  Level FlightAware ADS-B (EIDW / DUB)
05:05AM 49.8363 16.1486 119° Southeast 566 651 35,000  Level FlightAware ADS-B (EIDW / DUB)
05:06AM 49.7977 16.2547 119° Southeast 566 651 35,000  Level FlightAware ADS-B (EIDW / DUB)
05:06AM 49.7563 16.3683 119° Southeast 568 654 35,000  Level FlightAware ADS-B (EIDW / DUB)
05:07AM 49.7151 16.4809 119° Southeast 570 656 35,000  Level FlightAware ADS-B (EIDW / DUB)
05:07AM 49.6721 16.5979 120° Southeast 569 655 35,000  Level FlightAware ADS-B (EIDW / DUB)
05:08AM 49.6620 16.6272 118° Southeast 571 657 35,000  Level FlightAware ADS-B (LKPR / PRG)
05:08AM 49.6551 16.6494 115° Southeast 565 650 35,000  Level FlightAware ADS-B (LKPR / PRG)
05:09AM 49.5881 16.9403 109° East 560 644 35,000  Level FlightAware ADS-B (EIDW / DUB)
05:09AM 49.5653 17.0555 107° East 561 646 35,000  Level FlightAware ADS-B (EIDW / DUB)
05:11AM 49.5176 17.2941 107° East 565 650 35,000  Level FlightAware ADS-B (EIDW / DUB)
05:11AM 49.4773 17.5029 106° East 568 654 35,000  Level FlightAware ADS-B (EIDW / DUB)
05:12AM 49.4324 17.7332 107° East 564 649 35,000  Level FlightAware ADS-B (EIDW / DUB)
05:13AM 49.4103 17.8479 106° East 560 644 35,000  Level FlightAware ADS-B (EIDW / DUB)
05:13AM 49.3835 17.9677 109° East 564 649 35,000  Level FlightAware ADS-B (EIDW / DUB)
05:14AM 49.3495 18.0790 115° Southeast 566 651 35,000  Level FlightAware ADS-B (EIDW / DUB)
05:14AM 49.3072 18.1874 121° Southeast 561 646 35,000  Level FlightAware ADS-B (EIDW / DUB)
05:15AM 49.2525 18.3201 122° Southeast 562 647 35,000  Level FlightAware ADS-B (EIDW / DUB)
05:16AM 49.2083 18.4263 122° Southeast 560 644 35,000  Level FlightAware ADS-B (EIDW / DUB)
05:17AM 49.1382 18.5949 122° Southeast 561 646 35,000  Level FlightAware ADS-B (EIDW / DUB)
05:17AM 49.1006 18.6849 122° Southeast 558 642 35,000  Level FlightAware ADS-B (EIDW / DUB)
05:18AM 49.0517 18.8018 123° Southeast 556 640 35,000  Level FlightAware ADS-B (EIDW / DUB)
05:18AM 49.0102 18.9009 123° Southeast 555 639 35,000  Level FlightAware ADS-B (EIDW / DUB)
05:19AM 48.9671 19.0028 123° Southeast 555 639 35,000  Level FlightAware ADS-B (EIDW / DUB)
05:19AM 48.9257 19.1007 123° Southeast 552 635 35,000  Level FlightAware ADS-B (EIDW / DUB)
05:20AM 48.8831 19.2007 123° Southeast 555 639 35,000  Level FlightAware ADS-B (EIDW / DUB)
05:20AM 48.8363 19.3098 123° Southeast 556 640 35,000  Level FlightAware ADS-B (EIDW / DUB)
05:21AM 48.7860 19.4272 123° Southeast 552 635 35,000  Level FlightAware ADS-B (EIDW / DUB)
05:21AM 48.7452 19.5215 123° Southeast 552 635 35,000  Level FlightAware ADS-B (EIDW / DUB)
05:22AM 48.6996 19.6276 123° Southeast 554 638 35,000  Level FlightAware ADS-B (EIDW / DUB)
05:22AM 48.6451 19.7529 123° Southeast 552 635 35,000  Level FlightAware ADS-B (EIDW / DUB)
05:23AM 48.5990 19.8584 123° Southeast 552 635 35,000  Level FlightAware ADS-B (EIDW / DUB)
05:24AM 48.5287 20.0189 123° Southeast 550 633 35,000  Level FlightAware ADS-B (EIDW / DUB)
05:24AM 48.4851 20.1177 124° Southeast 550 633 35,000  Level FlightAware ADS-B (EIDW / DUB)
05:25AM 48.4435 20.2117 124° Southeast 549 632 35,000  Level FlightAware ADS-B (EIDW / DUB)
05:25AM 48.4028 20.3030 124° Southeast 548 631 35,000  Level FlightAware ADS-B (EIDW / DUB)
05:26AM 48.3596 20.3994 124° Southeast 548 631 35,000  Level FlightAware ADS-B (EIDW / DUB)
05:27AM 48.3000 20.5318 124° Southeast 547 629 35,000  Level FlightAware ADS-B (EIDW / DUB)
05:27AM 48.2263 20.6939 124° Southeast 544 626 35,000  Level FlightAware ADS-B (EIDW / DUB)
05:28AM 48.1530 20.8550 124° Southeast 543 625 35,000  Level FlightAware
05:29AM 48.1151 20.9379 124° Southeast 544 626 35,000  Level FlightAware ADS-B (EIDW / DUB)
05:29AM 48.0550 21.0680 125° Southeast 542 624 35,000  Level FlightAware
05:30AM 47.9910 21.2080 124° Southeast 540 621 35,000  Level FlightAware
05:31AM 47.9260 21.3470 125° Southeast 537 618 35,000  Level FlightAware
05:32AM 47.8610 21.4860 125° Southeast 535 616 35,000  Level FlightAware
05:32AM 47.8000 21.6170 125° Southeast 535 616 35,000  Level FlightAware
05:33AM 47.7490 21.7250 125° Southeast 532 612 35,000  Level FlightAware
05:34AM 48.0697 21.0368 305° West 541 623 35,000  Level FlightAware ADS-B (EIDW / DUB)
05:35AM 47.5720 22.0980 123° Southeast 526 605 35,000  Level FlightAware
05:36AM 47.9383 21.3418 123° Southeast  Level Estimated
05:36AM 47.5180 22.2160 124° Southeast 525 604 35,000  Level FlightAware
05:36AM 47.4670 22.3400 121° Southeast 522 601 35,000  Level FlightAware
05:37AM 47.4230 22.4510 120° Southeast 523 602 35,000 180 Level FlightAware
05:38AM 47.3900 22.5370 120° Southeast 525 604 35,200 900 Climbing FlightAware
05:38AM 47.3440 22.6550 120° Southeast 524 603 36,000 1,020 Climbing FlightAware
05:39AM 47.2920 22.7900 120° Southeast 532 612 36,600 660 Climbing FlightAware
05:39AM 47.2470 22.9040 120° Southeast 536 617 36,900 300 Climbing FlightAware
05:40AM 47.2060 23.0090 120° Southeast 534 615 37,000 60 Climbing FlightAware
05:41AM 47.1390 23.1790 120° Southeast 532 612 37,000  Level FlightAware
05:42AM 47.0840 23.3160 120° Southeast 529 609 37,000  Level FlightAware
05:42AM 47.0400 23.4250 121° Southeast 529 609 37,000  Level FlightAware
05:43AM 46.9960 23.5340 121° Southeast 529 609 37,000  Level FlightAware
05:43AM 46.9510 23.6470 120° Southeast 526 605 37,000  Level FlightAware
05:44AM 46.8910 23.7950 121° Southeast 520 598 37,000  Level FlightAware
05:45AM 46.8420 23.9150 121° Southeast 519 597 37,000  Level FlightAware
05:46AM 46.7860 24.0510 121° Southeast 518 596 37,000  Level FlightAware
05:46AM 46.7390 24.1660 121° Southeast 516 594 37,000  Level FlightAware
05:47AM 46.6830 24.3010 121° Southeast 515 593 37,000  Level FlightAware
05:48AM 46.6400 24.4040 121° Southeast 515 593 37,000  Level FlightAware
05:48AM 46.5950 24.5120 121° Southeast 513 590 37,000  Level FlightAware
05:49AM 46.5490 24.6210 122° Southeast 507 583 37,000  Level FlightAware
05:50AM 46.5020 24.7340 121° Southeast 505 581 37,000  Level FlightAware
05:50AM 46.4550 24.8450 122° Southeast 503 579 37,000  Level FlightAware
05:51AM 46.4000 24.9740 122° Southeast 497 572 37,000  Level FlightAware
05:52AM 46.3580 25.0740 121° Southeast 500 575 37,000  Level FlightAware
05:52AM 46.3020 25.2050 122° Southeast 507 583 37,000  Level FlightAware
05:53AM 46.2530 25.3180 122° Southeast 510 587 37,000  Level FlightAware
05:54AM 46.2030 25.4350 122° Southeast 511 588 37,000  Level FlightAware
05:54AM 46.1610 25.5300 123° Southeast 512 589 37,000  Level FlightAware
05:55AM 46.1000 25.6660 123° Southeast 514 592 37,000  Level FlightAware
05:56AM 46.0540 25.7720 122° Southeast 515 593 37,000  Level FlightAware
05:56AM 46.0020 25.8910 122° Southeast 508 585 37,000  Level FlightAware
05:57AM 45.9570 25.9940 122° Southeast 505 581 37,000  Level FlightAware
05:57AM 46.1500 25.5544 302° West 505 581 37,000  Level FlightAware ADS-B
05:58AM 45.8690 26.2010 122° Southeast 504 580 37,000  Level FlightAware
05:59AM 45.8110 26.3350 122° Southeast 502 578 37,000  Level FlightAware
06:00AM 45.7640 26.4450 121° Southeast 501 577 37,000  Level FlightAware
06:00AM 45.7240 26.5360 122° Southeast 502 578 37,000  Level FlightAware
06:01AM 45.6890 26.6170 122° Southeast 504 580 37,000  Level FlightAware
06:01AM 45.6460 26.7150 122° Southeast 508 585 37,000  Level FlightAware
06:02AM 45.5900 26.8475 121° Southeast 503 579 37,000  Level FlightAware ADS-B
06:03AM 45.5421 26.9591 127° Southeast 497 572 37,000  Level FlightAware ADS-B
06:03AM 45.5060 27.0440 121° Southeast 495 570 37,000  Level FlightAware
06:04AM 45.4395 27.1284 127° Southeast  Level Estimated
06:04AM 45.4590 27.1520 122° Southeast 494 568 37,000  Level FlightAware
06:05AM 45.3890 27.3140 122° Southeast 491 565 37,000  Level FlightAware
06:06AM 45.3120 27.4980 121° Southeast 490 564 37,000  Level FlightAware
06:06AM 45.2840 27.5650 121° Southeast 487 560 37,000  Level FlightAware
06:07AM 45.2410 27.6640 122° Southeast 487 560 37,000  Level FlightAware
06:08AM 45.1710 27.8260 121° Southeast 484 557 37,000  Level FlightAware
06:09AM 45.1150 27.9450 124° Southeast 480 552 37,000  Level FlightAware
06:09AM 45.0510 28.0760 125° Southeast 478 550 37,000  Level FlightAware
06:10AM 44.9960 28.1890 125° Southeast 479 551 37,000  Level FlightAware
06:11AM 44.9440 28.2940 125° Southeast 481 554 37,000  Level FlightAware
06:11AM 44.9180 28.3450 126° Southeast 483 556 37,000  Level FlightAware
06:12AM 44.8630 28.4550 125° Southeast 486 559 37,000  Level FlightAware
06:13AM 44.7810 28.6190 125° Southeast 488 562 37,000  Level FlightAware
06:14AM 44.6990 28.7820 125° Southeast 486 559 37,000  Level FlightAware
06:15AM 44.6370 28.9050 125° Southeast 485 558 37,000  Level FlightAware
06:15AM 44.5960 28.9860 125° Southeast 486 559 37,000  Level FlightAware
06:16AM 44.5600 29.0570 125° Southeast 485 558 37,000  Level FlightAware
06:16AM 44.5070 29.1610 126° Southeast 483 556 37,000  Level FlightAware
06:17AM 44.4530 29.2660 126° Southeast 484 557 37,000  Level FlightAware
06:18AM 44.4000 29.3680 126° Southeast 485 558 37,000  Level FlightAware
06:18AM 44.3600 29.4460 126° Southeast 486 559 37,000  Level FlightAware
06:19AM 44.3200 29.5260 125° Southeast 486 559 37,000  Level FlightAware
06:19AM 44.2730 29.6150 126° Southeast 486 559 37,000  Level FlightAware
06:20AM 44.1950 29.7640 126° Southeast 488 562 37,000  Level FlightAware
06:21AM 44.1390 29.8720 126° Southeast 489 563 37,000  Level FlightAware
06:22AM 44.0860 29.9720 126° Southeast 488 562 37,000  Level FlightAware
06:22AM 44.0430 30.0550 126° Southeast 487 560 37,000  Level FlightAware
06:23AM 43.9920 30.1510 126° Southeast 487 560 37,000  Level FlightAware
06:24AM 43.9460 30.2370 127° Southeast 488 562 37,000  Level FlightAware
06:24AM 43.9110 30.3040 126° Southeast 485 558 37,000  Level FlightAware
06:25AM 43.8690 30.3830 126° Southeast 485 558 37,000  Level FlightAware
06:25AM 43.8070 30.5080 124° Southeast 492 566 37,000  Level FlightAware
06:26AM 43.7800 30.5940 113° Southeast 497 572 37,000  Level FlightAware
06:26AM 43.7520 30.7010 110° East 499 574 37,000  Level FlightAware
06:27AM 43.7180 30.8340 109° East 499 574 37,000  Level FlightAware
06:28AM 43.6760 30.9950 110° East 501 577 37,000  Level FlightAware
06:29AM 43.6430 31.1170 110° East 499 574 37,000  Level FlightAware
06:29AM 43.6140 31.2200 111° Southeast 500 575 37,000  Level FlightAware
06:30AM 43.5650 31.4000 111° Southeast 502 578 37,000  Level FlightAware
06:31AM 43.5430 31.4760 112° Southeast 502 578 37,000  Level FlightAware
06:31AM 43.5080 31.6050 110° East 502 578 37,000  Level FlightAware
06:33AM 43.4520 31.8010 111° Southeast 501 577 37,000  Level FlightAware
06:33AM 43.4150 31.9200 113° Southeast 501 577 37,000  Level FlightAware
06:34AM 43.3840 32.0220 113° Southeast 499 574 37,000  Level FlightAware
06:34AM 43.3520 32.1230 114° Southeast 497 572 37,000  Level FlightAware
06:35AM 43.2940 32.3140 113° Southeast 500 575 37,000  Level FlightAware
06:36AM 43.2620 32.4310 111° Southeast 501 577 37,000  Level FlightAware
06:37AM 43.2310 32.5510 109° East 503 579 37,000  Level FlightAware
06:37AM 43.2070 32.6410 110° East 502 578 37,000  Level FlightAware
06:38AM 43.1510 32.8500 110° East 502 578 37,000  Level FlightAware
06:39AM 43.1160 32.9810 110° East 503 579 37,000  Level FlightAware
06:40AM 43.0810 33.1000 112° Southeast 502 578 37,000  Level FlightAware
06:41AM 43.0450 33.2180 113° Southeast 503 579 37,000  Level FlightAware
06:41AM 43.0140 33.3210 112° Southeast 504 580 37,000  Level FlightAware
06:42AM 42.9610 33.4970 112° Southeast 507 583 37,000  Level FlightAware
06:43AM 42.9340 33.5860 112° Southeast 508 585 37,000  Level FlightAware
06:44AM 42.8840 33.7490 113° Southeast 508 585 37,000  Level FlightAware
06:44AM 42.8530 33.8530 112° Southeast 510 587 37,000  Level FlightAware
06:45AM 42.8170 33.9690 113° Southeast 509 586 37,000  Level FlightAware
06:45AM 42.7750 34.0830 117° Southeast 501 577 37,000  Level FlightAware
06:46AM 42.7140 34.1760 132° Southeast 495 570 37,000  Level FlightAware
06:46AM 42.6930 34.2040 136° Southeast 495 570 37,000  Level FlightAware
06:47AM 42.6180 34.3050 135° Southeast 496 571 37,000  Level FlightAware
06:48AM 42.5520 34.3950 135° Southeast 496 571 37,000  Level FlightAware
06:48AM 42.5190 34.4390 135° Southeast 496 571 37,000  Level FlightAware
06:49AM 42.4510 34.5310 135° Southeast 496 571 37,000  Level FlightAware
06:50AM 42.4160 34.5780 135° Southeast 496 571 37,000  Level FlightAware
06:50AM 42.3500 34.6670 135° Southeast 496 571 37,000  Level FlightAware
06:51AM 42.3170 34.7120 135° Southeast 496 571 37,000  Level FlightAware
06:51AM 42.2670 34.7790 135° Southeast 496 571 37,000  Level FlightAware
06:53AM 42.0700 35.0160 138° Southeast 500 575 37,000  Level FlightAware
06:54AM 41.9850 35.1260 136° Southeast 500 575 37,000  Level FlightAware
06:54AM 41.9330 35.1940 136° Southeast 500 575 37,000  Level FlightAware
06:55AM 41.8820 35.2600 136° Southeast 500 575 37,000  Level FlightAware
06:56AM 41.8310 35.3260 136° Southeast 500 575 37,000  Level FlightAware
06:56AM 41.7800 35.3920 136° Southeast 500 575 37,000  Level FlightAware
06:57AM 41.7290 35.4580 136° Southeast 500 575 37,000  Level FlightAware
06:57AM 41.6780 35.5240 136° Southeast 500 575 37,000  Level FlightAware
06:58AM 41.6270 35.5900 136° Southeast 500 575 37,000  Level FlightAware
06:59AM 41.5770 35.6560 135° Southeast 500 575 37,000  Level FlightAware
06:59AM 41.5410 35.7010 137° Southeast 500 575 37,000  Level FlightAware
07:00AM 41.4380 35.8340 136° Southeast 500 575 37,000  Level FlightAware
07:01AM 41.3870 35.9000 136° Southeast 500 575 37,000  Level FlightAware
07:01AM 41.3350 35.9670 136° Southeast 500 575 37,000  Level FlightAware
07:02AM 41.2820 36.0340 136° Southeast 500 575 37,000  Level FlightAware
07:05AM 41.0059 36.3819 136° Southeast  Level Estimated
07:06AM 40.8944 36.5211 137° Southeast  Level Estimated
07:07AM 40.7828 36.6599 137° Southeast  Level Estimated
07:08AM 40.6710 36.7983 137° Southeast  Level Estimated
07:09AM 40.5590 36.9361 137° Southeast  Level Estimated
07:10AM 40.4468 37.0735 137° Southeast  Level Estimated
07:11AM 40.3345 37.2105 137° Southeast  Level Estimated
07:12AM 40.2221 37.3470 137° Southeast  Level Estimated
07:13AM 40.1095 37.4830 137° Southeast  Level Estimated
07:14AM 39.9967 37.6186 137° Southeast  Level Estimated
07:15AM 39.8837 37.7537 137° Southeast  Level Estimated
07:16AM 39.7706 37.8884 138° Southeast  Level Estimated
07:17AM 39.6574 38.0227 138° Southeast  Level Estimated
07:18AM 39.5440 38.1565 138° Southeast  Level Estimated
07:19AM 39.4304 38.2899 138° Southeast  Level Estimated
07:20AM 39.3167 38.4228 138° Southeast  Level Estimated
07:21AM 39.2029 38.5553 138° Southeast  Level Estimated
07:22AM 39.0888 38.6874 138° Southeast  Level Estimated
07:23AM 38.9747 38.8191 138° Southeast  Level Estimated
07:24AM 38.8604 38.9503 138° Southeast  Level Estimated
07:25AM 38.7459 39.0811 138° Southeast  Level Estimated
07:25AM 39.4430 39.9860 138° Southeast 531 611 37,000  Level FlightAware
07:25AM 39.3940 40.0710 127° Southeast 532 612 37,000  Level FlightAware
07:26AM 39.3550 40.1360 128° Southeast 534 615 37,000  Level FlightAware
07:27AM 39.2730 40.2770 127° Southeast 536 617 37,000  Level FlightAware
07:27AM 39.2050 40.3920 127° Southeast 533 613 37,000  Level FlightAware
07:28AM 39.1480 40.4890 127° Southeast 534 615 37,000  Level FlightAware
07:29AM 39.1160 40.5430 127° Southeast 534 615 37,000  Level FlightAware
07:29AM 39.0540 40.6490 127° Southeast 534 615 37,000  Level FlightAware
07:30AM 39.0240 40.7000 127° Southeast 534 615 37,000  Level FlightAware
07:30AM 38.9780 40.7780 127° Southeast 534 615 37,000  Level FlightAware
07:31AM 38.9330 40.8560 127° Southeast 534 615 37,000  Level FlightAware
07:32AM 38.8870 40.9330 127° Southeast 534 615 37,000  Level FlightAware
07:32AM 38.8390 41.0150 127° Southeast 534 615 37,000  Level FlightAware
07:33AM 38.7940 41.0930 126° Southeast 534 615 37,000  Level FlightAware
07:33AM 38.7480 41.1700 127° Southeast 534 615 37,000  Level FlightAware
07:34AM 38.7000 41.2520 127° Southeast 534 615 37,000  Level FlightAware
07:35AM 38.6550 41.3290 127° Southeast 534 615 37,000  Level FlightAware
07:35AM 38.5940 41.4320 127° Southeast 534 615 37,000  Level FlightAware
07:36AM 38.5490 41.5090 127° Southeast 534 615 37,000  Level FlightAware
07:37AM 38.5030 41.5860 127° Southeast 534 615 37,000  Level FlightAware
07:37AM 38.4420 41.6890 127° Southeast 534 615 37,000  Level FlightAware
07:38AM 38.4270 41.7150 126° Southeast 534 615 37,000  Level FlightAware
07:41AM 38.0695 42.0347 145° Southeast  Level Estimated
07:42AM 37.9439 42.1461 145° Southeast  Level Estimated
07:43AM 37.8182 42.2571 145° Southeast  Level Estimated
07:44AM 37.6923 42.3678 145° Southeast  Level Estimated
07:45AM 37.5664 42.4781 145° Southeast  Level Estimated
07:46AM 37.4403 42.5880 145° Southeast  Level Estimated
07:47AM 37.3142 42.6976 145° Southeast  Level Estimated
07:48AM 37.1879 42.8067 145° Southeast  Level Estimated
07:49AM 37.0616 42.9156 145° Southeast  Level Estimated
07:50AM 36.9351 43.0240 146° Southeast  Level Estimated
07:51AM 36.8086 43.1321 146° Southeast  Level Estimated
07:52AM 36.6820 43.2398 146° Southeast  Level Estimated
07:53AM 36.5552 43.3472 146° Southeast  Level Estimated
07:54AM 36.4284 43.4543 146° Southeast  Level Estimated
07:55AM 36.3015 43.5609 146° Southeast  Level Estimated
07:56AM 36.1744 43.6673 146° Southeast  Level Estimated
07:57AM 36.0473 43.7733 146° Southeast  Level Estimated
07:58AM 35.9201 43.8789 146° Southeast  Level Estimated
07:59AM 35.7928 43.9842 146° Southeast  Level Estimated
08:00AM 35.6654 44.0892 146° Southeast  Level Estimated
08:01AM 35.5379 44.1938 146° Southeast  Level Estimated
08:02AM 35.4104 44.2981 146° Southeast  Level Estimated
08:03AM 35.2827 44.4021 146° Southeast  Level Estimated
08:04AM 35.1549 44.5058 146° Southeast  Level Estimated
08:04AM 35.1160 44.4130 146° Southeast 509 586 37,000  Level FlightAware
08:05AM 35.0271 44.6091 146° Southeast  Level Estimated
08:05AM 35.0190 44.4580 159° South 509 586 37,000  Level FlightAware
08:06AM 34.9720 44.4800 159° South 509 586 37,000  Level FlightAware
08:06AM 34.9050 44.5120 159° South 509 586 37,000  Level FlightAware
08:07AM 34.8380 44.5430 159° South 509 586 37,000  Level FlightAware
08:07AM 34.7710 44.5750 159° South 509 586 37,000  Level FlightAware
08:08AM 34.6150 44.6280 164° South 508 585 37,000  Level FlightAware
08:09AM 34.5440 44.6580 161° South 508 585 37,000  Level FlightAware
08:09AM 34.4440 44.7030 160° South 510 587 37,000  Level FlightAware
08:10AM 34.3050 44.7720 158° South 510 587 37,000  Level FlightAware
08:11AM 34.2660 44.7910 158° South 510 587 37,000  Level FlightAware
08:12AM 34.1410 44.8520 158° South 512 589 37,000  Level FlightAware
08:12AM 34.0460 44.8980 158° South 513 590 37,000  Level FlightAware
08:13AM 33.9420 44.9490 158° South 512 589 37,000  Level FlightAware
08:14AM 33.8670 44.9850 158° South 510 587 37,000  Level FlightAware
08:14AM 33.7840 45.0250 158° South 511 588 37,000  Level FlightAware
08:16AM 33.6220 45.1020 158° South 508 585 37,000  Level FlightAware
08:16AM 33.5610 45.1300 159° South 509 586 37,000  Level FlightAware
08:17AM 33.4760 45.1690 159° South 509 586 37,000  Level FlightAware
08:17AM 33.3930 45.2070 159° South 509 586 37,000  Level FlightAware
08:18AM 33.3140 45.2430 159° South 508 585 37,000  Level FlightAware
08:19AM 33.2270 45.2850 158° South 508 585 37,000  Level FlightAware
08:19AM 33.1560 45.3210 157° South 508 585 37,000  Level FlightAware
08:20AM 33.0870 45.3560 157° South 507 583 37,000  Level FlightAware
08:21AM 32.9230 45.4370 157° South 507 583 37,000  Level FlightAware
08:22AM 32.8280 45.4830 158° South 508 585 37,000  Level FlightAware
08:23AM 32.6960 45.5450 158° South 508 585 37,000  Level FlightAware
08:23AM 32.6120 45.5980 152° Southeast 523 602 37,000  Level FlightAware
08:24AM 32.5430 45.6680 139° Southeast 530 610 37,000  Level FlightAware
08:25AM 32.4270 45.7990 136° Southeast 531 611 37,000  Level FlightAware
08:26AM 32.3730 45.8610 136° Southeast 531 611 37,000  Level FlightAware
08:26AM 32.2970 45.9430 138° Southeast 530 610 37,000  Level FlightAware
08:27AM 32.2430 46.0040 136° Southeast 530 610 37,000  Level FlightAware
08:27AM 32.1890 46.0660 136° Southeast 530 610 37,000  Level FlightAware
08:29AM 32.0620 46.1970 139° Southeast 527 606 37,000  Level FlightAware
08:29AM 31.9860 46.2800 137° Southeast 527 606 37,000  Level FlightAware
08:30AM 31.9140 46.3600 137° Southeast 527 606 37,000  Level FlightAware
08:31AM 31.8590 46.4200 137° Southeast 527 606 37,000  Level FlightAware
08:31AM 31.8040 46.4800 137° Southeast 527 606 37,000  Level FlightAware
08:35AM 31.4151 46.8056 144° Southeast  Level Estimated
08:35AM 31.3770 46.9310 145° Southeast 533 613 37,000  Level FlightAware
08:35AM 31.3240 46.9900 136° Southeast 533 613 37,000  Level FlightAware
08:36AM 31.2901 46.9095 145° Southeast  Level Estimated
08:36AM 31.2530 47.0630 139° Southeast 534 615 37,000  Level FlightAware
08:37AM 31.1830 47.1380 137° Southeast 534 615 37,000  Level FlightAware
08:37AM 31.1030 47.2230 138° Southeast 533 613 37,000  Level FlightAware
08:38AM 31.0710 47.2570 138° Southeast 533 613 37,000  Level FlightAware
08:39AM 30.9670 47.3660 138° Southeast 534 615 37,000  Level FlightAware
08:39AM 30.9050 47.4330 137° Southeast 534 615 37,000  Level FlightAware
08:40AM 30.8520 47.4860 139° Southeast 535 616 37,000  Level FlightAware
08:40AM 30.7680 47.5750 138° Southeast 536 617 37,000  Level FlightAware
08:41AM 30.7000 47.6460 138° Southeast 537 618 37,000  Level FlightAware
08:42AM 30.6280 47.7210 138° Southeast 538 619 37,000  Level FlightAware
08:43AM 30.4910 47.8630 138° Southeast 540 621 37,000  Level FlightAware
08:43AM 30.4290 47.9270 138° Southeast 540 621 37,000  Level FlightAware
08:44AM 30.3700 47.9890 138° Southeast 539 620 37,000  Level FlightAware
08:45AM 30.2690 48.0920 139° Southeast 538 619 37,000  Level FlightAware
08:46AM 30.1370 48.2280 138° Southeast 536 617 37,000  Level FlightAware
08:46AM 30.0860 48.2800 139° Southeast 536 617 37,000  Level FlightAware
08:47AM 30.0180 48.3500 138° Southeast 535 616 37,000  Level FlightAware
08:48AM 29.9530 48.4170 138° Southeast 536 617 37,000  Level FlightAware
08:48AM 29.8590 48.5020 142° Southeast 528 608 37,000  Level FlightAware
08:49AM 29.8090 48.5350 150° Southeast 521 600 37,000  Level FlightAware
08:50AM 29.7250 48.5840 153° Southeast 522 601 37,000  Level FlightAware
08:50AM 29.6540 48.6260 153° Southeast 522 601 37,000  Level FlightAware
08:51AM 29.5870 48.6650 153° Southeast 521 600 37,000  Level FlightAware
08:51AM 29.5030 48.7140 153° Southeast 521 600 37,000  Level FlightAware
08:52AM 29.4220 48.7620 153° Southeast 521 600 37,000  Level FlightAware
08:53AM 29.2990 48.8340 153° Southeast 522 601 37,000  Level FlightAware
08:53AM 29.2300 48.8740 153° Southeast 521 600 37,000  Level FlightAware
08:54AM 29.1780 48.9040 153° Southeast 521 600 37,000  Level FlightAware
08:55AM 29.0670 48.9680 153° Southeast 522 601 37,000  Level FlightAware
08:56AM 28.9320 49.0470 153° Southeast 525 604 37,000  Level FlightAware
08:56AM 28.8650 49.0850 154° Southeast 525 604 37,000  Level FlightAware
08:57AM 28.7980 49.1240 153° Southeast 525 604 37,000  Level FlightAware
08:57AM 28.6960 49.1830 153° Southeast 526 605 37,000  Level FlightAware
08:58AM 28.6280 49.2220 153° Southeast 526 605 37,000  Level FlightAware
08:58AM 28.5840 49.2480 153° Southeast 525 604 37,000  Level FlightAware
08:59AM 28.4870 49.3030 154° Southeast 523 602 37,000  Level FlightAware
09:00AM 28.4190 49.3420 153° Southeast 523 602 37,000  Level FlightAware
09:00AM 28.3510 49.3820 153° Southeast 523 602 37,000  Level FlightAware
09:01AM 28.2850 49.4200 153° Southeast 523 602 37,000  Level FlightAware
09:02AM 28.2170 49.4590 153° Southeast 523 602 37,000  Level FlightAware
09:02AM 28.0910 49.5330 153° Southeast 656 755 37,000  Level FlightAware
09:03AM 28.0380 49.5730 146° Southeast 528 608 37,000  Level FlightAware
09:03AM 27.9490 49.6460 144° Southeast 529 609 37,000  Level FlightAware
09:04AM 27.8630 49.7160 144° Southeast 529 609 37,000  Level FlightAware
09:04AM 27.8190 49.7520 144° Southeast 529 609 37,000  Level FlightAware
09:05AM 27.7540 49.8060 144° Southeast 529 609 37,000  Level FlightAware
09:06AM 27.6730 49.8720 144° Southeast 529 609 37,000  Level FlightAware
09:07AM 27.6120 49.9220 144° Southeast 529 609 37,000  Level FlightAware
09:07AM 27.5550 49.9690 144° Southeast 529 609 37,000  Level FlightAware
09:08AM 27.4950 50.0190 144° Southeast 529 609 37,000  Level FlightAware
09:08AM 27.4170 50.0820 144° Southeast 529 609 37,000  Level FlightAware
09:10AM 27.2930 50.1840 144° Southeast 529 609 37,000  Level FlightAware
09:10AM 27.2320 50.2330 144° Southeast 529 609 37,000  Level FlightAware
09:11AM 27.1710 50.2830 144° Southeast 529 609 37,000  Level FlightAware
09:11AM 27.1510 50.2990 145° Southeast 529 609 37,000  Level FlightAware
09:13AM 26.9980 50.4240 144° Southeast 529 609 37,000  Level FlightAware
09:13AM 26.9580 50.4570 144° Southeast 529 609 37,000 -3,900 Level FlightAware
09:15AM 26.5630 50.7550 149° Southeast 501 577 28,000 -3,720 Descending FlightAware
09:16AM 26.6303 50.6739 149° Southeast  Level Estimated
09:16AM 26.4400 50.8450 147° Southeast 479 551 26,000  Level FlightAware
09:17AM 26.3800 50.9010 140° Southeast 473 544 25,100 -780 Descending FlightAware
09:17AM 26.3200 50.9870 128° Southeast 475 547 25,000 -120 Descending FlightAware
09:18AM 26.2830 51.0500 123° Southeast 476 548 25,000  Level FlightAware
09:18AM 26.2410 51.1200 124° Southeast 478 550 25,000  Level FlightAware
09:19AM 26.1730 51.2360 123° Southeast 473 544 25,000  Level FlightAware
09:20AM 26.1310 51.3060 124° Southeast 472 543 25,000 -1,140 Level FlightAware
09:21AM 26.0770 51.3980 123° Southeast 462 532 23,500 -1,920 Descending FlightAware
09:21AM 26.0440 51.4600 121° Southeast 461 531 22,600 -1,920 Descending FlightAware
09:22AM 26.0090 51.5290 119° Southeast 451 519 21,400 -1,980 Descending FlightAware
09:23AM 25.9620 51.6230 119° Southeast 439 505 20,000 -1,920 Descending FlightAware
09:23AM 25.9270 51.6790 125° Southeast 431 496 19,000 -1,980 Descending FlightAware
09:24AM 25.8320 51.7360 152° Southeast 409 471 17,200 -1,860 Descending FlightAware
09:25AM 25.7480 51.7540 169° South 408 470 15,900 -1,800 Descending FlightAware
09:25AM 25.6730 51.7710 168° South 392 451 14,700 -1,680 Descending FlightAware
09:26AM 25.6180 51.7840 168° South 358 412 13,900 -1,440 Descending FlightAware
09:27AM 25.5520 51.7990 168° South 313 360 12,900 -1,500 Descending FlightAware
09:28AM 25.4570 51.8110 173° South 291 335 11,100 -1,500 Descending FlightAware
09:28AM 25.4020 51.8110 180° South 291 335 10,200 -1,260 Descending FlightAware
09:29AM 25.3400 51.8100 181° South 288 331 9,400 -1,080 Descending FlightAware
09:30AM 25.2780 51.8080 182° South 281 323 8,600 -1,020 Descending FlightAware
09:30AM 25.2460 51.8080 180° South 277 319 8,200 -1,140 Descending FlightAware
09:31AM 25.2000 51.8070 181° South 269 310 7,500 -1,260 Descending FlightAware
09:32AM 25.1590 51.8060 181° South 270 311 6,800 -1,200 Descending FlightAware
09:32AM 25.1110 51.8050 181° South 266 306 6,100 -1,020 Descending FlightAware
09:33AM 25.0560 51.8010 184° South 254 292 5,400 -900 Descending FlightAware
09:34AM 25.0320 51.7760 223° Southwest 227 261 5,000 -720 Descending FlightAware
09:34AM 25.0150 51.7280 249° West 193 222 4,500 -780 Descending FlightAware
09:35AM 25.0200 51.7000 281° West 180 207 4,000 -780 Descending FlightAware
09:35AM 25.0360 51.6710 301° West 175 201 3,600 -600 Descending FlightAware
09:36AM 25.0640 51.6520 328° Northwest 158 182 3,200 -600 Descending FlightAware
09:37AM 25.0840 51.6430 338° Northwest 164 189 2,900 -720 Descending FlightAware
09:37AM 25.1070 51.6330 339° North 159 183 2,500 -660 Descending FlightAware
09:38AM 25.1360 51.6200 338° Northwest 161 185 2,100 -780 Descending FlightAware
09:39AM 25.1650 51.6080 339° North 159 183 1,500 -840 Descending FlightAware
09:39AM 25.1850 51.5980 336° Northwest 144 166 1,100 -780 Descending FlightAware
09:40AM 25.2160 51.5850 339° North 146 168 500 -780 Descending FlightAware
09:41AM 25.2460 51.5720 339° North 148 170 -660 Descending FlightAware